Goldfield, Nevada Weather observations

Data are for observation ending at time listed.
 Day   Time    Ave.   Ave.  Ave.  Vector   Max.   Stn.    Total    Solar   Ave.  
  of    of     Air    Rel.  Wind   Wind    Wind   Baro.  Precip.   Rad.    Soil  
Year   Day     Temp.  Hum.  Speed  Dir.    Gust   Pres.                    Temp. 
2016   (PST)    F      %     mph   deg.    mph     mb.     in.     W/m2     F   
------------------------------------------------------------------------------
 269    0:00   51.7    36    2.2   267      4.8   837.4    0.00       0    63.1
 269    0:10   51.5    35    5.5   305      7.7   837.4    0.00       0    62.9
 269    0:20   51.6    36    6.2   303      9.5   837.4    0.00       0    62.8
 269    0:30   52.4    35    3.8   325      7.5   837.6    0.00       0    62.7
 269    0:40   52.1    36    3.3    26      5.1   837.8    0.00       0    62.5
 269    0:50   51.6    36    3.9   349      5.8   837.8    0.00       0    62.4
 269    1:00   52.4    36    2.5   308      4.7   838.0    0.00       0    62.3
 269    1:10   51.6    36    4.7   325      6.6   838.0    0.00       0    62.2
 269    1:20   50.6    37    4.4   312      6.9   837.9    0.00       0    62.0
 269    1:30   49.1    38    4.5   326      6.5   837.9    0.00       0    61.9
 269    1:40   50.3    38    5.7   340     10.4   837.8    0.00       0    61.8
 269    1:50   50.6    38    7.9   335     10.6   837.7    0.00       0    61.6
 269    2:00   49.4    39    3.6   303      8.3   837.7    0.00       0    61.5
 269    2:10   49.8    38    4.1   286      6.7   837.9    0.00       0    61.4
 269    2:20   50.9    37    4.0   302      8.9   837.8    0.00       0    61.2
 269    2:30   51.1    37    6.3   331      8.1   837.8    0.00       0    61.1
 269    2:40   51.6    37    6.6   346     10.3   837.7    0.00       0    61.0
 269    2:50   49.7    39    4.3   356      6.9   837.7    0.00       0    60.9
 269    3:00   49.7    39    5.0   346      7.2   837.8    0.00       0    60.8
 269    3:10   50.2    38    4.8   344      8.2   837.8    0.00       0    60.7
 269    3:20   50.1    38    6.6   345      9.2   837.7    0.00       0    60.6
 269    3:30   49.3    40    7.5   339      9.5   837.6    0.00       0    60.5
 269    3:40   48.2    41    6.1   326      9.1   837.7    0.00       0    60.4
 269    3:50   46.7    43    5.3   332      7.4   837.9    0.00       0    60.2
 269    4:00   47.9    42    6.6   346     11.4   837.9    0.00       0    60.2
 269    4:10   49.5    39    7.9   334     11.5   838.0    0.00       0    60.1
 269    4:20   48.5    40    7.4   341      9.3   838.1    0.00       0    59.9
 269    4:30   49.1    40    7.6   336     10.7   838.2    0.00       0    59.8
 269    4:40   48.7    40    6.1   333      8.8   838.3    0.00       0    59.8
 269    4:50   47.4    42    4.7   302      6.9   838.3    0.00       0    59.6
 269    5:00   46.4    43    2.7   287      6.1   838.4    0.00       0    59.5
 269    5:10   46.8    43    3.5   103      6.5   838.3    0.00       0    59.4
 269    5:20   48.4    40    3.9    37      9.9   838.4    0.00       0    59.3
 269    5:30   51.0    37    2.1    38      5.9   838.4    0.00       0    59.2
 269    5:40   49.5    39    2.7    78      4.4   838.5    0.00       1    59.1
 269    5:50   47.9    41    3.2    10      6.4   838.6    0.00       6    59.0
 269    6:00   47.2    43    1.5   337      4.2   838.9    0.00      17    58.9
 269    6:10   48.1    42    2.1   306      3.4   839.0    0.00      58    58.8
 269    6:20   50.6    39    1.1   284      2.8   839.0    0.00      95    58.7
 269    6:30   53.2    36    1.2   292      3.0   839.2    0.00     123    58.6
 269    6:40   55.3    34    0.5   260      1.5   839.2    0.00     163    58.6
 269    6:50   55.0    35    2.5    17      6.0   839.1    0.00     199    58.5
 269    7:00   53.3    36    3.9   357      7.2   839.1    0.00     238    58.5
 269    7:10   54.5    34    6.9   340     10.3   839.0    0.00     275    58.4
 269    7:20   57.4    30    9.7   346     13.9   839.0    0.00     309    58.4
 269    7:30   58.0    30    8.2   349     12.5   839.1    0.00     344    58.5
 269    7:40   57.9    31    7.9   357     12.2   839.1    0.00     376    58.5
 269    7:50   58.0    31   10.6   343     14.5   838.9    0.00     412    58.7
 269    8:00   58.3    30   11.2   344     16.9   838.8    0.00     445    58.9
 269    8:10   59.5    29   10.0   346     16.5   838.8    0.00     476    59.0
 269    8:20   60.6    28   10.8   345     15.5   838.9    0.00     507    59.3
 269    8:30   61.4    27    9.5   349     14.8   839.0    0.00     536    59.5
 269    8:40   62.3    26   10.0   350     15.9   839.0    0.00     565    59.6
 269    8:50   63.0    25   11.7   342     17.0   839.0    0.00     594    59.8
 269    9:00   63.6    24   13.3   336     21.9   838.9    0.00     620    59.9
 269    9:10   64.8    22   12.7   334     17.8   838.9    0.00     645    60.1
 269    9:20   65.4    21   12.7   330     17.6   838.9    0.00     668    60.4
 269    9:30   66.5    20   13.4   324     18.9   838.7    0.00     689    60.7
 269    9:40   66.6    19   13.7   330     19.2   838.6    0.00     712    61.1
 269    9:50   67.3    18   13.5   322     20.2   838.7    0.00     728    61.6
 269   10:00   68.2    18   13.9   322     20.8   838.6    0.00     747    62.1
 269   10:10   68.3    16   13.4   330     19.9   838.4    0.00     765    62.6
 269   10:20   68.2    17   15.3   326     21.8   838.4    0.00     778    63.2
 269   10:30   68.6    16   14.2   330     22.0   838.3    0.00     791    63.7
 269   10:40   68.4    16   14.5   330     20.8   838.2    0.00     802    64.3
 269   10:50   69.3    15   14.4   326     19.2   838.2    0.00     811    64.7
 269   11:00   69.9    14   13.7   331     20.3   838.2    0.00     819    65.0
 269   11:10   70.2    14   13.4   334     22.7   838.1    0.00     825    65.2
 269   11:20   70.8    13   12.6   322     19.9   838.0    0.00     829    65.4
 269   11:30   72.6    12   13.3   324     21.0   838.0    0.00     833    65.7
 269   11:40   72.1    12   13.3   330     21.1   837.8    0.00     834    66.0
 269   11:50   72.3    13   12.2   333     20.2   837.6    0.00     832    66.3
 269   12:00   72.1    12   10.0   340     16.3   837.6    0.00     829    66.7
 269   12:10   73.3    12    9.9   344     16.1   837.4    0.00     825    67.0
 269   12:20   73.1    12   10.5   345     18.6   837.3    0.00     818    67.4
 269   12:30   73.1    12    9.6   353     16.1   837.2    0.00     810    67.7
 269   12:40   73.8    11   10.1   330     16.7   837.1    0.00     799    68.1
 269   12:50   73.4    11    9.7   345     17.8   837.1    0.00     785    68.5
 269   13:00   73.9    11    9.3   342     17.1   837.0    0.00     774    68.8
 269   13:10   74.2    11    8.9   335     16.8   836.9    0.00     759    69.2
 269   13:20   75.2    11   10.9   334     19.9   836.8    0.00     741    69.5
 269   13:30   74.9    11    9.1   333     17.0   836.8    0.00     724    69.8
 269   13:40   74.8    11   10.9   332     18.0   836.7    0.00     699    70.1
 269   13:50   74.9    11   11.0   338     20.9   836.7    0.00     681    70.2
 269   14:00   75.2    11   10.7   335     20.6   836.6    0.00     660    70.4
 269   14:10   75.8    11   10.5   330     18.1   836.8    0.00     636    70.5
 269   14:20   75.4    11    9.5   336     16.8   836.7    0.00     610    70.6
 269   14:30   76.7    11    9.3   324     14.5   836.5    0.00     584    70.6
 269   14:40   75.8    11   10.8   333     18.3   836.3    0.00     556    70.5
 269   14:50   76.4    11   10.5   331     17.5   836.2    0.00     528    70.5
 269   15:00   77.0    10    8.8   330     16.8   836.0    0.00     498    70.4
 269   15:10   76.2    11    9.5   329     15.1   836.0    0.00     467    70.4
 269   15:20   76.2    11    9.9   336     16.7   835.9    0.00     435    70.3
 269   15:30   76.7    11    9.8   325     15.9   835.8    0.00     402    70.3
 269   15:40   76.8    11   11.2   328     16.4   835.6    0.00     371    70.3
 269   15:50   76.0    11   11.1   334     18.2   835.6    0.00     338    70.2
 269   16:00   77.1    10   10.0   320     14.3   835.6    0.00     305    70.2
 269   16:10   77.1    11   10.7   325     14.8   835.6    0.00     270    70.2
 269   16:20   77.1    11   10.6   317     17.5   835.6    0.00     239    70.1
 269   16:30   76.9    11   11.0   326     15.9   835.5    0.00     203    70.1
 269   16:40   76.8    11   10.5   316     15.0   835.4    0.00     175    70.0
 269   16:50   76.4    11   12.5   323     18.0   835.3    0.00     137    70.0
 269   17:00   75.9    12   10.9   328     14.8   835.3    0.00      95    69.9
 269   17:10   75.3    12   10.1   327     13.7   835.3    0.00      47    69.9
 269   17:20   74.0    13    9.7   321     13.6   835.3    0.00      16    69.8
 269   17:30   72.8    13    8.2   315     12.1   835.3    0.00      12    69.9
 269   17:40   71.5    14    5.7   306     10.2   835.3    0.00       9    69.8
 269   17:50   69.7    14    4.8   300      6.9   835.4    0.00       4    69.7
 269   18:00   68.6    15    4.6   303      6.1   835.5    0.00       1    69.6
 269   18:10   68.0    15    3.9   306      5.3   835.6    0.00       0    69.6
 269   18:20   67.7    15    3.6   314      4.6   835.7    0.00       0    69.5
 269   18:30   67.4    16    2.2   313      6.3   835.8    0.00       0    69.3
 269   18:40   66.1    16    0.8   106      2.0   835.9    0.00       0    69.2
 269   18:50   65.6    17    1.1    91      3.1   836.1    0.00       0    69.0
 269   19:00   65.2    17    1.3   108      3.1   836.2    0.00       0    68.9
 269   19:10   64.5    17    1.9    95      4.2   836.4    0.00       0    68.8
 269   19:20   63.3    18    1.7    69      5.3   836.6    0.00       0    68.5
 269   19:30   63.1    18    2.2   269      4.2   836.7    0.00       0    68.4
 269   19:40   64.1    18    3.1   282      4.6   836.8    0.00       0    68.3
 269   19:50   63.9    18    1.5   282      4.2   836.9    0.00       0    68.1
 269   20:00   62.4    19    0.6    41      3.0   837.0    0.00       0    67.9
 269   20:10   63.1    19    2.5     1      8.2   837.0    0.00       0    67.8
 269   20:20   64.3    18    5.3   347      9.5   837.1    0.00       0    67.6
 269   20:30   65.3    17    6.3   333     11.8   837.1    0.00       0    67.5
 269   20:40   65.0    18    6.1   327      9.5   837.1    0.00       0    67.3
 269   20:50   64.4    18    4.0   350      8.8   837.1    0.00       0    67.2
 269   21:00   64.5    18    2.9   344      5.9   837.1    0.00       0    67.1
 269   21:10   63.0    19    2.7   320      6.9   837.1    0.00       0    66.9
 269   21:20   62.5    20    1.4   314      4.7   837.2    0.00       0    66.8
 269   21:30   62.5    21    2.3   301      4.4   837.2    0.00       0    66.7
 269   21:40   62.3    22    3.4   301      5.3   837.3    0.00       0    66.5
 269   21:50   62.2    22    3.0   298      4.9   837.4    0.00       0    66.4
 269   22:00   62.4    22    1.9   298      5.2   837.4    0.00       0    66.3
 269   22:10   61.1    23    2.3   264      3.7   837.4    0.00       0    66.1
 269   22:20   60.2    24    3.0   261      4.5   837.5    0.00       0    66.0

Return to Goldfield, Nevada graphs page.


Western Regional Climate Center,wrcc@dri.edu